Bethany, Ohio
Current Conditions -  °F | °C
As of 7:55 PM on Saturday 22 Nov 2014 (Local Time) from KMWO Reporting Station
Broken Clouds Broken Clouds  
Wind Chill: 55°   Ceiling: 10000
Heat Index: 55°   Visibility: 10mi
Dew Point: 34°   Wind: 7mph
Humidity: 45%   Direction: 200°SSW
Pressure: 30.08"   Gusts: NA
Location:  39.5538°N, 84.4567°W
Report Text: KMWO 230055Z AUTO 20006KT 10SM SCT085 BKN100 13/01 A3008 RMK AO2 T01300013
Loading
Personal Weather Stations






























Interactive Weather Map New forecast layout! Learn more

10-Day Weather Forecast

Advertisements
Track Severe Weather on mobile